WZZ4937 EDDH-EPGD
Flight info
| Callsign | WZZ4937 |
|---|---|
| Flight time | 0h 56m |
| Altitude | 35000 |
| Route | LUGEG3G LUGEG P605 MEGAR DCT KOSEB DCT RUMAR L983 DOMAG T240 OGDAV OGDA5T |
| Aircraft | A21N/M-SDE2E3FGHIRWXY/LB1 |
Departure
| Time | 2026-04-24 14:47 |
|---|---|
| Airport | Hamburg Helmut Schmidt Airport (EDDH) |
Arrival
| Time | 2026-04-24 15:43 |
|---|---|
| Airport | Gdańsk Lech Wałęsa Airport (EPGD) |
| Time | Latitude | Longitude | Altitude | Speed | Heading |
|---|---|---|---|---|---|
| 2026-04-24 14:26 | 53.62738 | 10.00305 | 54 ft | 0 kts | 62° |
| 2026-04-24 14:39 | 53.62734 | 10.00291 | 53 ft | 0 kts | 64° |
| 2026-04-24 14:39 | 53.62724 | 10.00249 | 48 ft | 0 kts | 76° |
| 2026-04-24 14:40 | 53.62721 | 10.00205 | 49 ft | 0 kts | 99° |
| 2026-04-24 14:40 | 53.62730 | 10.00171 | 49 ft | 3 kts | 149° |
| 2026-04-24 14:40 | 53.62737 | 10.00165 | 49 ft | 0 kts | 153° |
| 2026-04-24 14:44 | 53.62732 | 10.00169 | 49 ft | 3 kts | 153° |
| 2026-04-24 14:44 | 53.62708 | 10.00190 | 48 ft | 5 kts | 153° |
| 2026-04-24 14:44 | 53.62667 | 10.00225 | 54 ft | 8 kts | 153° |
| 2026-04-24 14:45 | 53.62611 | 10.00271 | 54 ft | 10 kts | 156° |
| 2026-04-24 14:45 | 53.62564 | 10.00187 | 53 ft | 11 kts | 241° |
| 2026-04-24 14:45 | 53.62542 | 10.00098 | 53 ft | 6 kts | 254° |
| 2026-04-24 14:45 | 53.62552 | 10.00021 | 50 ft | 8 kts | 323° |
| 2026-04-24 14:46 | 53.62561 | 10.00012 | 51 ft | 0 kts | 333° |
| 2026-04-24 14:46 | 53.62590 | 9.99986 | 52 ft | 17 kts | 330° |
| 2026-04-24 14:46 | 53.62947 | 9.99679 | 51 ft | 99 kts | 332° |
| 2026-04-24 14:47 | 53.63785 | 9.98939 | 84 ft | 164 kts | 328° |
| 2026-04-24 14:47 | 53.64762 | 9.98107 | 962 ft | 159 kts | 329° |
| 2026-04-24 14:47 | 53.65757 | 9.97248 | 1877 ft | 162 kts | 329° |
| 2026-04-24 14:47 | 53.66771 | 9.96378 | 2740 ft | 164 kts | 331° |
| 2026-04-24 14:48 | 53.67795 | 9.95506 | 3476 ft | 171 kts | 332° |
| 2026-04-24 14:48 | 53.68971 | 9.94702 | 3874 ft | 196 kts | 347° |
| 2026-04-24 14:48 | 53.70399 | 9.94577 | 4488 ft | 213 kts | 359° |
| 2026-04-24 14:48 | 53.71893 | 9.94660 | 5478 ft | 215 kts | 3° |
| 2026-04-24 14:49 | 53.73317 | 9.95419 | 6538 ft | 219 kts | 28° |
| 2026-04-24 14:49 | 53.74431 | 9.97384 | 7130 ft | 251 kts | 54° |
| 2026-04-24 14:49 | 53.75216 | 10.00119 | 7705 ft | 271 kts | 60° |
| 2026-04-24 14:49 | 53.75999 | 10.03073 | 8540 ft | 279 kts | 60° |
| 2026-04-24 14:50 | 53.76814 | 10.06077 | 9449 ft | 283 kts | 59° |
| 2026-04-24 14:50 | 53.77665 | 10.09114 | 10328 ft | 289 kts | 59° |
| 2026-04-24 14:50 | 53.78569 | 10.12279 | 10780 ft | 310 kts | 59° |
| 2026-04-24 14:50 | 53.79539 | 10.15684 | 11149 ft | 331 kts | 59° |
| 2026-04-24 14:51 | 53.80564 | 10.19263 | 11744 ft | 343 kts | 60° |
| 2026-04-24 14:51 | 53.81609 | 10.22920 | 12559 ft | 348 kts | 60° |
| 2026-04-24 14:51 | 53.82667 | 10.26629 | 13411 ft | 352 kts | 60° |
| 2026-04-24 14:51 | 53.83729 | 10.30334 | 14185 ft | 357 kts | 60° |
| 2026-04-24 14:52 | 53.84823 | 10.34137 | 14927 ft | 362 kts | 60° |
| 2026-04-24 14:52 | 53.85930 | 10.37991 | 15668 ft | 367 kts | 60° |
| 2026-04-24 14:52 | 53.87045 | 10.41905 | 16398 ft | 372 kts | 61° |
| 2026-04-24 14:52 | 53.88171 | 10.45877 | 17126 ft | 377 kts | 61° |
| 2026-04-24 14:53 | 53.89309 | 10.49913 | 17853 ft | 382 kts | 61° |
| 2026-04-24 14:53 | 53.90467 | 10.54002 | 18545 ft | 387 kts | 61° |
| 2026-04-24 14:53 | 53.91639 | 10.58139 | 19146 ft | 392 kts | 61° |
| 2026-04-24 14:53 | 53.92824 | 10.62333 | 19746 ft | 397 kts | 61° |
| 2026-04-24 14:54 | 53.94115 | 10.66490 | 20338 ft | 399 kts | 53° |
| 2026-04-24 14:54 | 53.95836 | 10.70097 | 20915 ft | 399 kts | 43° |
| 2026-04-24 14:54 | 53.97743 | 10.73550 | 21504 ft | 403 kts | 42° |
| 2026-04-24 14:54 | 53.99683 | 10.77034 | 22087 ft | 408 kts | 42° |
| 2026-04-24 14:55 | 54.00970 | 10.79378 | 22469 ft | 411 kts | 43° |
| 2026-04-24 14:55 | 54.03590 | 10.84192 | 23247 ft | 417 kts | 42° |
| 2026-04-24 14:55 | 54.05574 | 10.87829 | 23787 ft | 421 kts | 42° |
| 2026-04-24 14:55 | 54.07578 | 10.91500 | 24262 ft | 425 kts | 42° |
| 2026-04-24 14:56 | 54.09594 | 10.95206 | 24742 ft | 428 kts | 42° |
| 2026-04-24 14:56 | 54.11600 | 10.98898 | 25225 ft | 432 kts | 42° |
| 2026-04-24 14:56 | 54.13643 | 11.02668 | 25680 ft | 435 kts | 42° |
| 2026-04-24 14:56 | 54.15712 | 11.06461 | 26146 ft | 438 kts | 42° |
| 2026-04-24 14:57 | 54.17794 | 11.10263 | 26604 ft | 441 kts | 42° |
| 2026-04-24 14:57 | 54.19888 | 11.14129 | 27059 ft | 444 kts | 42° |
| 2026-04-24 14:57 | 54.21984 | 11.18027 | 27503 ft | 447 kts | 42° |
| 2026-04-24 14:57 | 54.24089 | 11.21964 | 27928 ft | 450 kts | 42° |
| 2026-04-24 14:58 | 54.26207 | 11.25932 | 28353 ft | 453 kts | 42° |
| 2026-04-24 14:58 | 54.28339 | 11.29935 | 28763 ft | 457 kts | 42° |
| 2026-04-24 14:58 | 54.30450 | 11.33916 | 29180 ft | 459 kts | 42° |
| 2026-04-24 14:58 | 54.32609 | 11.37972 | 29570 ft | 462 kts | 42° |
| 2026-04-24 14:59 | 54.34785 | 11.42064 | 29975 ft | 465 kts | 42° |
| 2026-04-24 14:59 | 54.36959 | 11.46165 | 30413 ft | 465 kts | 42° |
| 2026-04-24 14:59 | 54.39132 | 11.50281 | 30849 ft | 465 kts | 42° |
| 2026-04-24 14:59 | 54.41305 | 11.54381 | 31276 ft | 464 kts | 42° |
| 2026-04-24 15:00 | 54.43470 | 11.58469 | 31699 ft | 463 kts | 42° |
| 2026-04-24 15:00 | 54.45629 | 11.62578 | 32091 ft | 463 kts | 43° |
| 2026-04-24 15:00 | 54.47545 | 11.66982 | 32462 ft | 470 kts | 53° |
| 2026-04-24 15:00 | 54.49198 | 11.71847 | 32869 ft | 471 kts | 55° |
| 2026-04-24 15:01 | 54.50821 | 11.76732 | 33242 ft | 470 kts | 55° |
| 2026-04-24 15:01 | 54.52437 | 11.81612 | 33623 ft | 470 kts | 55° |
| 2026-04-24 15:01 | 54.54056 | 11.86502 | 34013 ft | 469 kts | 55° |
| 2026-04-24 15:01 | 54.55660 | 11.91393 | 34314 ft | 469 kts | 55° |
| 2026-04-24 15:02 | 54.57264 | 11.96275 | 34605 ft | 468 kts | 55° |
| 2026-04-24 15:02 | 54.58874 | 12.01140 | 34877 ft | 468 kts | 55° |
| 2026-04-24 15:02 | 54.60489 | 12.06004 | 35082 ft | 467 kts | 55° |
| 2026-04-24 15:03 | 54.63162 | 12.14109 | 35092 ft | 466 kts | 55° |
| 2026-04-24 15:03 | 54.66863 | 12.25421 | 35066 ft | 466 kts | 55° |
| 2026-04-24 15:04 | 54.70042 | 12.35191 | 35056 ft | 466 kts | 55° |
| 2026-04-24 15:04 | 54.73213 | 12.44954 | 35053 ft | 466 kts | 55° |
| 2026-04-24 15:05 | 54.76352 | 12.54678 | 35044 ft | 466 kts | 56° |
| 2026-04-24 15:05 | 54.78537 | 12.65348 | 35048 ft | 479 kts | 76° |
| 2026-04-24 15:06 | 54.79506 | 12.76804 | 35038 ft | 480 kts | 78° |
| 2026-04-24 15:06 | 54.80463 | 12.88249 | 35039 ft | 480 kts | 78° |
| 2026-04-24 15:07 | 54.81436 | 12.99702 | 35032 ft | 480 kts | 78° |
| 2026-04-24 15:07 | 54.82376 | 13.11078 | 35030 ft | 480 kts | 78° |
| 2026-04-24 15:08 | 54.83334 | 13.22533 | 35028 ft | 479 kts | 78° |
| 2026-04-24 15:08 | 54.84269 | 13.33980 | 35030 ft | 480 kts | 78° |
| 2026-04-24 15:09 | 54.85204 | 13.45439 | 35029 ft | 479 kts | 78° |
| 2026-04-24 15:09 | 54.86121 | 13.56900 | 35024 ft | 479 kts | 78° |
| 2026-04-24 15:10 | 54.87022 | 13.68294 | 35021 ft | 479 kts | 78° |
| 2026-04-24 15:10 | 54.87903 | 13.79770 | 35019 ft | 479 kts | 78° |
| 2026-04-24 15:11 | 54.88794 | 13.91241 | 35012 ft | 479 kts | 78° |
| 2026-04-24 15:11 | 54.89657 | 14.02711 | 35003 ft | 479 kts | 78° |
| 2026-04-24 15:12 | 54.90524 | 14.14196 | 35005 ft | 479 kts | 78° |
| 2026-04-24 15:12 | 54.91791 | 14.31341 | 34999 ft | 479 kts | 78° |
| 2026-04-24 15:13 | 54.92626 | 14.42818 | 34997 ft | 478 kts | 78° |
| 2026-04-24 15:13 | 54.93443 | 14.54284 | 34997 ft | 478 kts | 78° |
| 2026-04-24 15:14 | 54.94261 | 14.65681 | 34996 ft | 478 kts | 79° |
| 2026-04-24 15:14 | 54.95052 | 14.77156 | 34997 ft | 478 kts | 79° |
| 2026-04-24 15:15 | 54.95842 | 14.88617 | 34996 ft | 477 kts | 79° |
| 2026-04-24 15:15 | 54.96625 | 15.00079 | 34995 ft | 477 kts | 79° |
| 2026-04-24 15:16 | 54.97390 | 15.11468 | 34992 ft | 476 kts | 79° |
| 2026-04-24 15:16 | 54.98144 | 15.22917 | 34993 ft | 476 kts | 79° |
| 2026-04-24 15:17 | 54.98877 | 15.34382 | 34992 ft | 476 kts | 79° |
| 2026-04-24 15:17 | 54.99624 | 15.45847 | 34993 ft | 476 kts | 79° |
| 2026-04-24 15:18 | 55.00342 | 15.57311 | 34995 ft | 476 kts | 79° |
| 2026-04-24 15:18 | 55.01053 | 15.68697 | 34988 ft | 476 kts | 79° |
| 2026-04-24 15:19 | 55.01751 | 15.80168 | 34996 ft | 476 kts | 79° |
| 2026-04-24 15:19 | 55.02426 | 15.91605 | 34643 ft | 475 kts | 79° |
| 2026-04-24 15:20 | 55.02768 | 15.97346 | 34366 ft | 478 kts | 79° |
| 2026-04-24 15:20 | 55.03116 | 16.03115 | 34123 ft | 480 kts | 79° |
| 2026-04-24 15:20 | 55.03344 | 16.08934 | 33871 ft | 485 kts | 86° |
| 2026-04-24 15:20 | 55.03191 | 16.14748 | 33607 ft | 487 kts | 90° |
| 2026-04-24 15:21 | 55.02960 | 16.20649 | 33343 ft | 488 kts | 90° |
| 2026-04-24 15:21 | 55.02740 | 16.26536 | 33077 ft | 487 kts | 90° |
| 2026-04-24 15:21 | 55.02531 | 16.32411 | 32809 ft | 485 kts | 90° |
| 2026-04-24 15:21 | 55.02336 | 16.38257 | 32539 ft | 482 kts | 89° |
| 2026-04-24 15:22 | 55.02154 | 16.44080 | 32275 ft | 480 kts | 89° |
| 2026-04-24 15:22 | 55.01959 | 16.49884 | 32013 ft | 478 kts | 90° |
| 2026-04-24 15:22 | 55.01756 | 16.55651 | 31756 ft | 476 kts | 90° |
| 2026-04-24 15:23 | 55.01364 | 16.67052 | 31254 ft | 472 kts | 89° |
| 2026-04-24 15:23 | 55.00958 | 16.78370 | 30270 ft | 465 kts | 90° |
| 2026-04-24 15:23 | 55.00751 | 16.83973 | 29626 ft | 460 kts | 90° |
| 2026-04-24 15:24 | 55.00139 | 17.00398 | 27794 ft | 445 kts | 90° |
| 2026-04-24 15:25 | 54.99802 | 17.09282 | 26861 ft | 440 kts | 90° |
| 2026-04-24 15:25 | 54.99328 | 17.21567 | 25567 ft | 435 kts | 90° |
| 2026-04-24 15:26 | 54.98702 | 17.37180 | 23934 ft | 428 kts | 90° |
| 2026-04-24 15:27 | 54.98069 | 17.52551 | 22167 ft | 420 kts | 91° |
| 2026-04-24 15:27 | 54.97072 | 17.67457 | 20501 ft | 414 kts | 108° |
| 2026-04-24 15:28 | 54.89841 | 17.82432 | 18585 ft | 402 kts | 135° |
| 2026-04-24 15:29 | 54.85997 | 17.89301 | 17614 ft | 393 kts | 134° |
| 2026-04-24 15:30 | 54.80450 | 17.99265 | 16258 ft | 372 kts | 137° |
| 2026-04-24 15:31 | 54.73101 | 18.09052 | 14984 ft | 363 kts | 144° |
| 2026-04-24 15:32 | 54.64899 | 18.21220 | 13400 ft | 345 kts | 132° |
| 2026-04-24 15:33 | 54.58800 | 18.32921 | 11977 ft | 319 kts | 132° |
| 2026-04-24 15:33 | 54.54403 | 18.41282 | 10687 ft | 311 kts | 132° |
| 2026-04-24 15:34 | 54.51511 | 18.46752 | 9881 ft | 306 kts | 132° |
| 2026-04-24 15:35 | 54.47259 | 18.54783 | 8712 ft | 300 kts | 133° |
| 2026-04-24 15:35 | 54.44480 | 18.60033 | 7846 ft | 296 kts | 133° |
| 2026-04-24 15:35 | 54.43119 | 18.62605 | 7405 ft | 294 kts | 133° |
| 2026-04-24 15:36 | 54.41992 | 18.65519 | 6955 ft | 294 kts | 114° |
| 2026-04-24 15:36 | 54.40431 | 18.71955 | 6109 ft | 291 kts | 112° |
| 2026-04-24 15:36 | 54.39596 | 18.75104 | 5652 ft | 289 kts | 123° |
| 2026-04-24 15:37 | 54.38233 | 18.77547 | 5302 ft | 279 kts | 148° |
| 2026-04-24 15:37 | 54.36544 | 18.78961 | 5099 ft | 263 kts | 169° |
| 2026-04-24 15:37 | 54.35374 | 18.79369 | 4982 ft | 256 kts | 175° |
| 2026-04-24 15:37 | 54.33078 | 18.79504 | 4559 ft | 245 kts | 197° |
| 2026-04-24 15:38 | 54.31577 | 18.78362 | 4286 ft | 230 kts | 221° |
| 2026-04-24 15:38 | 54.30547 | 18.76414 | 4103 ft | 214 kts | 244° |
| 2026-04-24 15:38 | 54.30069 | 18.74118 | 3930 ft | 198 kts | 265° |
| 2026-04-24 15:38 | 54.30227 | 18.71898 | 3732 ft | 185 kts | 296° |
| 2026-04-24 15:39 | 54.31053 | 18.70265 | 3345 ft | 181 kts | 316° |
| 2026-04-24 15:39 | 54.31906 | 18.68822 | 3087 ft | 166 kts | 308° |
| 2026-04-24 15:39 | 54.32538 | 18.67229 | 2865 ft | 158 kts | 299° |
| 2026-04-24 15:39 | 54.33023 | 18.65598 | 2640 ft | 152 kts | 295° |
| 2026-04-24 15:40 | 54.33437 | 18.64030 | 2460 ft | 137 kts | 295° |
| 2026-04-24 15:40 | 54.33786 | 18.62645 | 2268 ft | 122 kts | 293° |
| 2026-04-24 15:40 | 54.34116 | 18.61323 | 2081 ft | 120 kts | 294° |
| 2026-04-24 15:40 | 54.34452 | 18.60009 | 1904 ft | 119 kts | 295° |
| 2026-04-24 15:41 | 54.34784 | 18.58704 | 1765 ft | 120 kts | 294° |
| 2026-04-24 15:41 | 54.35104 | 18.57380 | 1565 ft | 121 kts | 293° |
| 2026-04-24 15:41 | 54.35416 | 18.56034 | 1433 ft | 121 kts | 294° |
| 2026-04-24 15:41 | 54.35734 | 18.54727 | 1249 ft | 121 kts | 295° |
| 2026-04-24 15:42 | 54.36070 | 18.53404 | 1091 ft | 121 kts | 297° |
| 2026-04-24 15:42 | 54.36403 | 18.52098 | 916 ft | 118 kts | 294° |
| 2026-04-24 15:42 | 54.36714 | 18.50806 | 752 ft | 117 kts | 295° |
| 2026-04-24 15:42 | 54.37039 | 18.49524 | 580 ft | 118 kts | 295° |
| 2026-04-24 15:43 | 54.37356 | 18.48256 | 488 ft | 108 kts | 294° |
| 2026-04-24 15:43 | 54.37569 | 18.47386 | 469 ft | 41 kts | 294° |
| 2026-04-24 15:43 | 54.37660 | 18.47037 | 463 ft | 32 kts | 295° |
| 2026-04-24 15:43 | 54.37755 | 18.46831 | 462 ft | 22 kts | 320° |
| 2026-04-24 15:44 | 54.37832 | 18.46730 | 464 ft | 4 kts | 324° |
| 2026-04-24 15:44 | 54.37833 | 18.46729 | 464 ft | 0 kts | 324° |
| 2026-04-24 15:45 | 54.37835 | 18.46726 | 464 ft | 2 kts | 324° |
| 2026-04-24 15:45 | 54.37865 | 18.46690 | 464 ft | 8 kts | 324° |
| 2026-04-24 15:45 | 54.37916 | 18.46625 | 465 ft | 10 kts | 321° |
| 2026-04-24 15:46 | 54.37963 | 18.46515 | 465 ft | 13 kts | 291° |
| 2026-04-24 15:46 | 54.37999 | 18.46364 | 465 ft | 15 kts | 292° |
| 2026-04-24 15:46 | 54.38043 | 18.46188 | 465 ft | 16 kts | 294° |
| 2026-04-24 15:46 | 54.38073 | 18.46091 | 464 ft | 14 kts | 314° |
| 2026-04-24 15:47 | 54.38174 | 18.46133 | 465 ft | 7 kts | 66° |
| 2026-04-24 15:47 | 54.38162 | 18.46229 | 462 ft | 10 kts | 114° |
| 2026-04-24 15:47 | 54.38132 | 18.46349 | 463 ft | 12 kts | 112° |
| 2026-04-24 15:47 | 54.38108 | 18.46449 | 461 ft | 6 kts | 110° |
| 2026-04-24 15:48 | 54.38131 | 18.46492 | 465 ft | 4 kts | 22° |
| 2026-04-24 15:48 | 54.38138 | 18.46498 | 465 ft | 2 kts | 22° |
| 2026-04-24 15:48 | 54.38142 | 18.46501 | 465 ft | 0 kts | 22° |